Wileyville, West Virginia
Current Conditions -  °F | °C
As of 1:53 AM on Thursday 18 Dec 2014 (Local Time) from KCKB Reporting Station
Overcast Overcast  
Wind Chill: 23°   Ceiling: 2700
Heat Index: 29°   Visibility: 10mi
Dew Point: 19°   Wind: 6mph
Humidity: 67%   Direction: 270°W
Pressure: 30.18"   Gusts: 16mph
Location:  39.63°N, 80.67°W
Report Text: KCKB 180653Z 27005G14KT 10SM OVC027 M02/M07 A3018 RMK AO2 SLP225 T10171072
Loading
Personal Weather Stations






























Interactive Weather Map New forecast layout! Learn more

10-Day Weather Forecast

Advertisements
Track Severe Weather on mobile